sensor_id;sensor_type;location;lat;lon;timestamp;P1;durP1;ratioP1;P2;durP2;ratioP2
77146;SDS011;66121;52.584;9.694;2022-12-18T00:00:56;7.72;;;5.82;;
77146;SDS011;66121;52.584;9.694;2022-12-18T00:03:40;8.20;;;5.82;;
77146;SDS011;66121;52.584;9.694;2022-12-18T00:09:08;7.57;;;6.00;;
77146;SDS011;66121;52.584;9.694;2022-12-18T00:11:52;8.60;;;6.45;;
77146;SDS011;66121;52.584;9.694;2022-12-18T00:14:36;6.80;;;5.80;;
77146;SDS011;66121;52.584;9.694;2022-12-18T00:20:04;7.55;;;5.75;;
77146;SDS011;66121;52.584;9.694;2022-12-18T00:22:48;8.23;;;5.82;;
77146;SDS011;66121;52.584;9.694;2022-12-18T00:25:33;8.48;;;5.90;;
77146;SDS011;66121;52.584;9.694;2022-12-18T00:28:18;8.13;;;5.80;;
77146;SDS011;66121;52.584;9.694;2022-12-18T00:31:03;7.65;;;5.22;;
77146;SDS011;66121;52.584;9.694;2022-12-18T00:33:48;7.10;;;5.80;;
77146;SDS011;66121;52.584;9.694;2022-12-18T00:36:33;7.75;;;5.68;;
77146;SDS011;66121;52.584;9.694;2022-12-18T00:39:17;7.95;;;6.07;;
77146;SDS011;66121;52.584;9.694;2022-12-18T00:45:04;7.13;;;5.63;;
77146;SDS011;66121;52.584;9.694;2022-12-18T00:47:49;7.30;;;5.75;;
77146;SDS011;66121;52.584;9.694;2022-12-18T00:50:33;7.97;;;5.57;;
77146;SDS011;66121;52.584;9.694;2022-12-18T00:53:17;6.65;;;5.35;;
77146;SDS011;66121;52.584;9.694;2022-12-18T00:56:01;7.15;;;5.43;;
77146;SDS011;66121;52.584;9.694;2022-12-18T00:58:45;7.45;;;5.38;;
77146;SDS011;66121;52.584;9.694;2022-12-18T01:01:29;7.15;;;5.40;;
77146;SDS011;66121;52.584;9.694;2022-12-18T01:04:13;7.72;;;5.55;;
77146;SDS011;66121;52.584;9.694;2022-12-18T01:06:57;8.52;;;5.90;;
77146;SDS011;66121;52.584;9.694;2022-12-18T01:09:41;8.13;;;5.45;;
77146;SDS011;66121;52.584;9.694;2022-12-18T01:12:25;7.43;;;5.28;;
77146;SDS011;66121;52.584;9.694;2022-12-18T01:15:09;7.22;;;5.43;;
77146;SDS011;66121;52.584;9.694;2022-12-18T01:17:55;7.38;;;5.60;;
77146;SDS011;66121;52.584;9.694;2022-12-18T01:23:26;7.32;;;5.28;;
77146;SDS011;66121;52.584;9.694;2022-12-18T01:26:12;7.20;;;5.25;;
77146;SDS011;66121;52.584;9.694;2022-12-18T01:28:58;7.57;;;5.72;;
77146;SDS011;66121;52.584;9.694;2022-12-18T01:34:26;8.35;;;5.53;;
77146;SDS011;66121;52.584;9.694;2022-12-18T01:37:10;7.07;;;5.28;;
77146;SDS011;66121;52.584;9.694;2022-12-18T01:39:54;5.93;;;4.82;;
77146;SDS011;66121;52.584;9.694;2022-12-18T01:48:08;6.95;;;5.13;;
77146;SDS011;66121;52.584;9.694;2022-12-18T01:50:52;7.60;;;5.60;;
77146;SDS011;66121;52.584;9.694;2022-12-18T01:56:22;6.88;;;4.85;;
77146;SDS011;66121;52.584;9.694;2022-12-18T01:59:06;7.07;;;5.40;;
77146;SDS011;66121;52.584;9.694;2022-12-18T02:01:53;6.85;;;5.03;;
77146;SDS011;66121;52.584;9.694;2022-12-18T02:07:31;6.18;;;4.80;;
77146;SDS011;66121;52.584;9.694;2022-12-18T02:19:15;5.68;;;4.72;;
77146;SDS011;66121;52.584;9.694;2022-12-18T02:25:51;6.97;;;5.40;;
77146;SDS011;66121;52.584;9.694;2022-12-18T02:28:41;7.25;;;5.15;;
77146;SDS011;66121;52.584;9.694;2022-12-18T02:31:30;6.35;;;4.93;;
77146;SDS011;66121;52.584;9.694;2022-12-18T02:34:20;7.13;;;5.05;;
77146;SDS011;66121;52.584;9.694;2022-12-18T02:37:09;6.65;;;5.13;;
77146;SDS011;66121;52.584;9.694;2022-12-18T02:39:56;7.55;;;5.05;;
77146;SDS011;66121;52.584;9.694;2022-12-18T02:42:42;6.45;;;5.13;;
77146;SDS011;66121;52.584;9.694;2022-12-18T02:53:47;6.40;;;4.85;;
77146;SDS011;66121;52.584;9.694;2022-12-18T02:56:38;7.88;;;5.20;;
77146;SDS011;66121;52.584;9.694;2022-12-18T02:59:38;6.95;;;4.97;;
77146;SDS011;66121;52.584;9.694;2022-12-18T03:05:41;5.88;;;4.90;;
77146;SDS011;66121;52.584;9.694;2022-12-18T03:08:35;5.88;;;4.60;;
77146;SDS011;66121;52.584;9.694;2022-12-18T03:11:23;7.47;;;5.40;;
77146;SDS011;66121;52.584;9.694;2022-12-18T03:14:29;6.93;;;4.97;;
77146;SDS011;66121;52.584;9.694;2022-12-18T03:17:16;7.13;;;5.25;;
77146;SDS011;66121;52.584;9.694;2022-12-18T03:20:08;6.65;;;4.75;;
77146;SDS011;66121;52.584;9.694;2022-12-18T03:22:58;7.15;;;5.43;;
77146;SDS011;66121;52.584;9.694;2022-12-18T03:25:45;6.50;;;4.82;;
77146;SDS011;66121;52.584;9.694;2022-12-18T03:28:33;6.90;;;5.13;;
77146;SDS011;66121;52.584;9.694;2022-12-18T03:31:23;6.50;;;5.00;;
77146;SDS011;66121;52.584;9.694;2022-12-18T03:34:09;6.95;;;5.18;;
77146;SDS011;66121;52.584;9.694;2022-12-18T03:36:59;6.20;;;4.80;;
77146;SDS011;66121;52.584;9.694;2022-12-18T03:39:42;6.93;;;4.95;;
77146;SDS011;66121;52.584;9.694;2022-12-18T03:45:42;6.47;;;4.70;;
77146;SDS011;66121;52.584;9.694;2022-12-18T03:48:37;6.35;;;4.60;;
77146;SDS011;66121;52.584;9.694;2022-12-18T03:51:33;6.28;;;4.80;;
77146;SDS011;66121;52.584;9.694;2022-12-18T03:54:23;7.20;;;4.93;;
77146;SDS011;66121;52.584;9.694;2022-12-18T03:57:13;6.95;;;5.13;;
77146;SDS011;66121;52.584;9.694;2022-12-18T04:00:03;6.22;;;4.78;;
77146;SDS011;66121;52.584;9.694;2022-12-18T04:02:52;8.15;;;5.28;;
77146;SDS011;66121;52.584;9.694;2022-12-18T04:05:39;6.15;;;4.65;;
77146;SDS011;66121;52.584;9.694;2022-12-18T04:08:26;6.10;;;4.68;;
77146;SDS011;66121;52.584;9.694;2022-12-18T04:11:11;5.70;;;4.55;;
77146;SDS011;66121;52.584;9.694;2022-12-18T04:13:56;6.38;;;5.07;;
77146;SDS011;66121;52.584;9.694;2022-12-18T04:16:41;5.53;;;4.07;;
77146;SDS011;66121;52.584;9.694;2022-12-18T04:19:25;7.13;;;5.03;;
77146;SDS011;66121;52.584;9.694;2022-12-18T04:22:10;7.57;;;4.95;;
77146;SDS011;66121;52.584;9.694;2022-12-18T04:24:54;5.95;;;4.82;;
77146;SDS011;66121;52.584;9.694;2022-12-18T04:27:38;6.63;;;4.88;;
77146;SDS011;66121;52.584;9.694;2022-12-18T04:30:22;6.43;;;4.43;;
77146;SDS011;66121;52.584;9.694;2022-12-18T04:33:10;6.50;;;4.65;;
77146;SDS011;66121;52.584;9.694;2022-12-18T04:35:55;6.05;;;4.97;;
77146;SDS011;66121;52.584;9.694;2022-12-18T04:38:39;6.97;;;4.40;;
77146;SDS011;66121;52.584;9.694;2022-12-18T04:41:23;7.43;;;5.03;;
77146;SDS011;66121;52.584;9.694;2022-12-18T04:44:07;6.75;;;4.65;;
77146;SDS011;66121;52.584;9.694;2022-12-18T04:46:51;6.75;;;4.70;;
77146;SDS011;66121;52.584;9.694;2022-12-18T04:52:19;5.93;;;4.75;;
77146;SDS011;66121;52.584;9.694;2022-12-18T04:55:03;5.53;;;4.22;;
77146;SDS011;66121;52.584;9.694;2022-12-18T04:57:47;5.57;;;4.15;;
77146;SDS011;66121;52.584;9.694;2022-12-18T05:00:31;5.18;;;4.30;;
77146;SDS011;66121;52.584;9.694;2022-12-18T05:05:59;7.05;;;4.57;;
77146;SDS011;66121;52.584;9.694;2022-12-18T05:08:43;6.38;;;4.60;;
77146;SDS011;66121;52.584;9.694;2022-12-18T05:11:27;5.72;;;4.35;;
77146;SDS011;66121;52.584;9.694;2022-12-18T05:14:10;6.03;;;4.63;;
77146;SDS011;66121;52.584;9.694;2022-12-18T05:16:55;6.72;;;4.78;;
77146;SDS011;66121;52.584;9.694;2022-12-18T05:19:39;7.43;;;5.15;;
77146;SDS011;66121;52.584;9.694;2022-12-18T05:22:23;6.68;;;4.35;;
77146;SDS011;66121;52.584;9.694;2022-12-18T05:25:08;6.07;;;4.45;;
77146;SDS011;66121;52.584;9.694;2022-12-18T05:30:36;5.95;;;4.40;;
77146;SDS011;66121;52.584;9.694;2022-12-18T05:33:20;5.75;;;4.10;;
77146;SDS011;66121;52.584;9.694;2022-12-18T05:36:06;5.10;;;4.10;;
77146;SDS011;66121;52.584;9.694;2022-12-18T05:38:51;6.38;;;5.15;;
77146;SDS011;66121;52.584;9.694;2022-12-18T05:41:35;5.88;;;4.80;;
77146;SDS011;66121;52.584;9.694;2022-12-18T05:44:19;6.20;;;4.78;;
77146;SDS011;66121;52.584;9.694;2022-12-18T05:47:03;5.60;;;4.22;;
77146;SDS011;66121;52.584;9.694;2022-12-18T05:49:47;5.63;;;4.45;;
77146;SDS011;66121;52.584;9.694;2022-12-18T05:52:31;5.78;;;4.25;;
77146;SDS011;66121;52.584;9.694;2022-12-18T05:55:15;6.47;;;4.45;;
77146;SDS011;66121;52.584;9.694;2022-12-18T05:57:59;6.00;;;4.55;;
77146;SDS011;66121;52.584;9.694;2022-12-18T06:00:44;5.47;;;4.07;;
77146;SDS011;66121;52.584;9.694;2022-12-18T06:03:29;5.88;;;4.28;;
77146;SDS011;66121;52.584;9.694;2022-12-18T06:06:14;5.28;;;4.15;;
77146;SDS011;66121;52.584;9.694;2022-12-18T06:09:00;5.72;;;4.70;;
77146;SDS011;66121;52.584;9.694;2022-12-18T06:11:44;6.18;;;4.50;;
77146;SDS011;66121;52.584;9.694;2022-12-18T06:14:28;6.15;;;4.70;;
77146;SDS011;66121;52.584;9.694;2022-12-18T06:17:12;6.10;;;4.80;;
77146;SDS011;66121;52.584;9.694;2022-12-18T06:19:56;5.55;;;4.05;;
77146;SDS011;66121;52.584;9.694;2022-12-18T06:22:40;5.88;;;4.68;;
77146;SDS011;66121;52.584;9.694;2022-12-18T06:25:24;6.05;;;4.35;;
77146;SDS011;66121;52.584;9.694;2022-12-18T06:30:52;6.55;;;4.55;;
77146;SDS011;66121;52.584;9.694;2022-12-18T06:33:36;6.10;;;4.57;;
77146;SDS011;66121;52.584;9.694;2022-12-18T06:36:21;5.50;;;3.97;;
77146;SDS011;66121;52.584;9.694;2022-12-18T06:39:05;5.88;;;4.57;;
77146;SDS011;66121;52.584;9.694;2022-12-18T06:41:49;5.15;;;3.92;;
77146;SDS011;66121;52.584;9.694;2022-12-18T06:44:33;5.60;;;4.70;;
77146;SDS011;66121;52.584;9.694;2022-12-18T06:47:17;6.32;;;4.35;;
77146;SDS011;66121;52.584;9.694;2022-12-18T06:50:01;7.10;;;4.75;;
77146;SDS011;66121;52.584;9.694;2022-12-18T06:52:45;7.80;;;4.05;;
77146;SDS011;66121;52.584;9.694;2022-12-18T06:55:29;5.53;;;4.47;;
77146;SDS011;66121;52.584;9.694;2022-12-18T06:58:14;5.82;;;4.53;;
77146;SDS011;66121;52.584;9.694;2022-12-18T07:01:05;5.40;;;4.10;;
77146;SDS011;66121;52.584;9.694;2022-12-18T07:03:51;5.72;;;4.45;;
77146;SDS011;66121;52.584;9.694;2022-12-18T07:06:39;6.00;;;4.70;;
77146;SDS011;66121;52.584;9.694;2022-12-18T07:09:23;7.90;;;4.40;;
77146;SDS011;66121;52.584;9.694;2022-12-18T07:12:08;6.30;;;4.55;;
77146;SDS011;66121;52.584;9.694;2022-12-18T07:14:51;8.20;;;5.20;;
77146;SDS011;66121;52.584;9.694;2022-12-18T07:17:35;9.40;;;5.82;;
77146;SDS011;66121;52.584;9.694;2022-12-18T07:20:19;10.32;;;5.75;;
77146;SDS011;66121;52.584;9.694;2022-12-18T07:23:04;9.57;;;5.93;;
77146;SDS011;66121;52.584;9.694;2022-12-18T07:25:48;10.60;;;5.50;;
77146;SDS011;66121;52.584;9.694;2022-12-18T07:28:32;7.60;;;5.35;;
77146;SDS011;66121;52.584;9.694;2022-12-18T07:31:19;7.72;;;5.20;;
77146;SDS011;66121;52.584;9.694;2022-12-18T07:34:04;8.50;;;5.40;;
77146;SDS011;66121;52.584;9.694;2022-12-18T07:36:48;8.70;;;5.28;;
77146;SDS011;66121;52.584;9.694;2022-12-18T07:39:32;9.00;;;5.43;;
77146;SDS011;66121;52.584;9.694;2022-12-18T07:42:16;6.45;;;4.47;;
77146;SDS011;66121;52.584;9.694;2022-12-18T07:45:15;11.88;;;5.20;;
77146;SDS011;66121;52.584;9.694;2022-12-18T07:47:59;22.05;;;5.13;;
77146;SDS011;66121;52.584;9.694;2022-12-18T07:50:43;6.55;;;4.50;;
77146;SDS011;66121;52.584;9.694;2022-12-18T07:53:27;7.68;;;4.30;;
77146;SDS011;66121;52.584;9.694;2022-12-18T07:56:12;8.25;;;4.38;;
77146;SDS011;66121;52.584;9.694;2022-12-18T07:58:57;6.82;;;4.32;;
77146;SDS011;66121;52.584;9.694;2022-12-18T08:01:41;8.35;;;3.92;;
77146;SDS011;66121;52.584;9.694;2022-12-18T08:04:25;6.70;;;4.22;;
77146;SDS011;66121;52.584;9.694;2022-12-18T08:07:09;6.15;;;4.25;;
77146;SDS011;66121;52.584;9.694;2022-12-18T08:09:53;8.07;;;4.25;;
77146;SDS011;66121;52.584;9.694;2022-12-18T08:12:37;7.75;;;4.63;;
77146;SDS011;66121;52.584;9.694;2022-12-18T08:15:21;11.10;;;5.30;;
77146;SDS011;66121;52.584;9.694;2022-12-18T08:18:05;8.82;;;5.80;;
77146;SDS011;66121;52.584;9.694;2022-12-18T08:20:49;7.55;;;6.53;;
77146;SDS011;66121;52.584;9.694;2022-12-18T08:23:33;13.98;;;11.90;;
77146;SDS011;66121;52.584;9.694;2022-12-18T08:29:01;13.55;;;12.45;;
77146;SDS011;66121;52.584;9.694;2022-12-18T08:31:46;11.00;;;10.00;;
77146;SDS011;66121;52.584;9.694;2022-12-18T08:34:29;19.92;;;10.80;;
77146;SDS011;66121;52.584;9.694;2022-12-18T08:37:13;13.48;;;12.38;;
77146;SDS011;66121;52.584;9.694;2022-12-18T08:39:57;14.85;;;13.45;;
77146;SDS011;66121;52.584;9.694;2022-12-18T08:42:41;38.33;;;35.00;;
77146;SDS011;66121;52.584;9.694;2022-12-18T08:45:44;17.77;;;15.52;;
77146;SDS011;66121;52.584;9.694;2022-12-18T08:53:56;13.50;;;12.30;;
77146;SDS011;66121;52.584;9.694;2022-12-18T08:56:39;15.75;;;14.23;;
77146;SDS011;66121;52.584;9.694;2022-12-18T08:59:23;15.68;;;14.32;;
77146;SDS011;66121;52.584;9.694;2022-12-18T09:02:11;12.70;;;11.30;;
77146;SDS011;66121;52.584;9.694;2022-12-18T09:04:55;11.75;;;10.43;;
77146;SDS011;66121;52.584;9.694;2022-12-18T09:07:39;11.35;;;10.20;;
77146;SDS011;66121;52.584;9.694;2022-12-18T09:10:23;10.18;;;8.75;;
77146;SDS011;66121;52.584;9.694;2022-12-18T09:15:52;57.67;;;27.30;;
77146;SDS011;66121;52.584;9.694;2022-12-18T09:18:37;47.80;;;20.77;;
77146;SDS011;66121;52.584;9.694;2022-12-18T09:21:21;49.53;;;21.88;;
77146;SDS011;66121;52.584;9.694;2022-12-18T09:26:52;33.20;;;17.92;;
77146;SDS011;66121;52.584;9.694;2022-12-18T09:29:37;32.85;;;16.85;;
77146;SDS011;66121;52.584;9.694;2022-12-18T09:32:21;33.55;;;15.68;;
77146;SDS011;66121;52.584;9.694;2022-12-18T09:37:49;28.40;;;13.43;;
77146;SDS011;66121;52.584;9.694;2022-12-18T09:40:40;24.65;;;12.73;;
77146;SDS011;66121;52.584;9.694;2022-12-18T09:43:35;23.17;;;13.10;;
77146;SDS011;66121;52.584;9.694;2022-12-18T09:46:29;17.75;;;11.43;;
77146;SDS011;66121;52.584;9.694;2022-12-18T09:49:17;18.48;;;10.40;;
77146;SDS011;66121;52.584;9.694;2022-12-18T09:55:34;22.25;;;10.20;;
77146;SDS011;66121;52.584;9.694;2022-12-18T09:58:37;20.00;;;10.65;;
77146;SDS011;66121;52.584;9.694;2022-12-18T10:01:28;18.42;;;10.25;;
77146;SDS011;66121;52.584;9.694;2022-12-18T10:04:13;14.73;;;8.90;;
77146;SDS011;66121;52.584;9.694;2022-12-18T10:13:08;15.48;;;8.93;;
77146;SDS011;66121;52.584;9.694;2022-12-18T10:16:05;15.02;;;7.75;;
77146;SDS011;66121;52.584;9.694;2022-12-18T10:19:04;15.45;;;7.72;;
77146;SDS011;66121;52.584;9.694;2022-12-18T10:22:15;13.65;;;7.03;;
77146;SDS011;66121;52.584;9.694;2022-12-18T11:40:46;14.68;;;7.53;;
77146;SDS011;66121;52.584;9.694;2022-12-18T11:43:40;17.77;;;9.43;;
77146;SDS011;66121;52.584;9.694;2022-12-18T11:46:31;28.85;;;11.57;;
77146;SDS011;66121;52.584;9.694;2022-12-18T11:49:26;40.22;;;13.82;;
77146;SDS011;66121;52.584;9.694;2022-12-18T11:52:23;16.77;;;8.10;;
77146;SDS011;66121;52.584;9.694;2022-12-18T11:55:12;16.60;;;8.02;;
77146;SDS011;66121;52.584;9.694;2022-12-18T12:10:00;19.92;;;9.60;;
77146;SDS011;66121;52.584;9.694;2022-12-18T12:21:59;18.05;;;9.38;;
77146;SDS011;66121;52.584;9.694;2022-12-18T12:30:55;18.00;;;8.13;;
77146;SDS011;66121;52.584;9.694;2022-12-18T12:34:14;15.07;;;7.75;;
77146;SDS011;66121;52.584;9.694;2022-12-18T12:39:58;14.85;;;7.55;;
77146;SDS011;66121;52.584;9.694;2022-12-18T12:42:51;15.07;;;7.05;;
77146;SDS011;66121;52.584;9.694;2022-12-18T12:48:54;16.92;;;8.07;;
77146;SDS011;66121;52.584;9.694;2022-12-18T12:51:43;18.73;;;8.75;;
77146;SDS011;66121;52.584;9.694;2022-12-18T12:54:31;18.50;;;9.27;;
77146;SDS011;66121;52.584;9.694;2022-12-18T12:57:21;21.52;;;9.38;;
77146;SDS011;66121;52.584;9.694;2022-12-18T13:00:15;24.73;;;10.55;;
77146;SDS011;66121;52.584;9.694;2022-12-18T13:03:16;24.73;;;10.60;;
77146;SDS011;66121;52.584;9.694;2022-12-18T13:06:36;21.42;;;10.23;;
77146;SDS011;66121;52.584;9.694;2022-12-18T13:09:32;18.58;;;10.45;;
77146;SDS011;66121;52.584;9.694;2022-12-18T13:12:18;18.95;;;8.80;;
77146;SDS011;66121;52.584;9.694;2022-12-18T13:15:24;19.13;;;9.30;;
77146;SDS011;66121;52.584;9.694;2022-12-18T13:23:42;24.70;;;11.88;;
77146;SDS011;66121;52.584;9.694;2022-12-18T13:29:10;26.40;;;11.57;;
77146;SDS011;66121;52.584;9.694;2022-12-18T13:31:57;21.95;;;10.68;;
77146;SDS011;66121;52.584;9.694;2022-12-18T13:34:42;22.77;;;11.40;;
77146;SDS011;66121;52.584;9.694;2022-12-18T13:37:39;25.17;;;11.65;;
77146;SDS011;66121;52.584;9.694;2022-12-18T13:46:44;26.38;;;12.85;;
77146;SDS011;66121;52.584;9.694;2022-12-18T13:52:25;25.13;;;11.00;;
77146;SDS011;66121;52.584;9.694;2022-12-18T13:55:18;26.67;;;12.43;;
77146;SDS011;66121;52.584;9.694;2022-12-18T13:58:04;25.42;;;10.95;;
77146;SDS011;66121;52.584;9.694;2022-12-18T14:00:49;25.45;;;11.52;;
77146;SDS011;66121;52.584;9.694;2022-12-18T14:03:32;24.52;;;11.77;;
77146;SDS011;66121;52.584;9.694;2022-12-18T14:06:16;26.45;;;12.23;;
77146;SDS011;66121;52.584;9.694;2022-12-18T14:09:00;25.08;;;11.20;;
77146;SDS011;66121;52.584;9.694;2022-12-18T14:11:46;23.33;;;11.35;;
77146;SDS011;66121;52.584;9.694;2022-12-18T14:14:34;20.98;;;9.75;;
77146;SDS011;66121;52.584;9.694;2022-12-18T14:17:18;27.58;;;12.77;;
77146;SDS011;66121;52.584;9.694;2022-12-18T14:20:03;22.83;;;11.07;;
77146;SDS011;66121;52.584;9.694;2022-12-18T14:22:55;25.73;;;11.57;;
77146;SDS011;66121;52.584;9.694;2022-12-18T14:26:25;23.17;;;11.43;;
77146;SDS011;66121;52.584;9.694;2022-12-18T14:28:57;24.00;;;11.20;;
77146;SDS011;66121;52.584;9.694;2022-12-18T14:31:26;24.73;;;11.38;;
77146;SDS011;66121;52.584;9.694;2022-12-18T14:33:53;28.50;;;11.63;;
77146;SDS011;66121;52.584;9.694;2022-12-18T14:36:26;28.25;;;12.85;;
77146;SDS011;66121;52.584;9.694;2022-12-18T14:38:53;28.17;;;12.10;;
77146;SDS011;66121;52.584;9.694;2022-12-18T14:41:21;29.45;;;12.30;;
77146;SDS011;66121;52.584;9.694;2022-12-18T14:43:48;29.50;;;13.25;;
77146;SDS011;66121;52.584;9.694;2022-12-18T14:48:59;25.42;;;12.27;;
77146;SDS011;66121;52.584;9.694;2022-12-18T14:51:41;25.50;;;12.13;;
77146;SDS011;66121;52.584;9.694;2022-12-18T14:54:16;23.17;;;11.07;;
77146;SDS011;66121;52.584;9.694;2022-12-18T14:56:44;22.05;;;10.80;;
77146;SDS011;66121;52.584;9.694;2022-12-18T14:59:15;23.13;;;12.27;;
77146;SDS011;66121;52.584;9.694;2022-12-18T15:04:25;28.17;;;12.63;;
77146;SDS011;66121;52.584;9.694;2022-12-18T15:10:02;24.90;;;12.57;;
77146;SDS011;66121;52.584;9.694;2022-12-18T15:12:35;21.55;;;12.32;;
77146;SDS011;66121;52.584;9.694;2022-12-18T15:15:04;27.67;;;12.55;;
77146;SDS011;66121;52.584;9.694;2022-12-18T15:17:30;23.80;;;12.52;;
77146;SDS011;66121;52.584;9.694;2022-12-18T15:20:00;30.40;;;11.90;;
77146;SDS011;66121;52.584;9.694;2022-12-18T15:24:54;26.10;;;12.93;;
77146;SDS011;66121;52.584;9.694;2022-12-18T15:27:28;28.42;;;12.70;;
77146;SDS011;66121;52.584;9.694;2022-12-18T15:32:34;31.15;;;14.10;;
77146;SDS011;66121;52.584;9.694;2022-12-18T15:37:35;27.55;;;13.90;;
77146;SDS011;66121;52.584;9.694;2022-12-18T15:40:04;25.45;;;13.13;;
77146;SDS011;66121;52.584;9.694;2022-12-18T15:42:30;30.75;;;14.10;;
77146;SDS011;66121;52.584;9.694;2022-12-18T15:45:14;31.00;;;14.55;;
77146;SDS011;66121;52.584;9.694;2022-12-18T15:47:40;24.40;;;12.60;;
77146;SDS011;66121;52.584;9.694;2022-12-18T15:50:07;32.78;;;15.60;;
77146;SDS011;66121;52.584;9.694;2022-12-18T15:52:34;28.15;;;13.40;;
77146;SDS011;66121;52.584;9.694;2022-12-18T15:57:58;26.92;;;12.45;;
77146;SDS011;66121;52.584;9.694;2022-12-18T16:00:23;28.47;;;13.97;;
77146;SDS011;66121;52.584;9.694;2022-12-18T16:02:49;22.33;;;12.68;;
77146;SDS011;66121;52.584;9.694;2022-12-18T16:05:15;26.30;;;13.30;;
77146;SDS011;66121;52.584;9.694;2022-12-18T16:07:42;23.13;;;12.40;;
77146;SDS011;66121;52.584;9.694;2022-12-18T16:10:08;33.97;;;14.32;;
77146;SDS011;66121;52.584;9.694;2022-12-18T16:12:33;25.40;;;12.90;;
77146;SDS011;66121;52.584;9.694;2022-12-18T16:14:58;25.40;;;13.13;;
77146;SDS011;66121;52.584;9.694;2022-12-18T16:17:24;24.57;;;13.33;;
77146;SDS011;66121;52.584;9.694;2022-12-18T16:19:49;28.93;;;13.20;;
77146;SDS011;66121;52.584;9.694;2022-12-18T16:23:14;24.25;;;12.18;;
77146;SDS011;66121;52.584;9.694;2022-12-18T16:25:39;23.88;;;12.43;;
77146;SDS011;66121;52.584;9.694;2022-12-18T16:28:05;27.27;;;12.03;;
77146;SDS011;66121;52.584;9.694;2022-12-18T16:30:31;28.20;;;13.02;;
77146;SDS011;66121;52.584;9.694;2022-12-18T16:32:57;31.13;;;13.88;;
77146;SDS011;66121;52.584;9.694;2022-12-18T16:35:23;27.80;;;13.35;;
77146;SDS011;66121;52.584;9.694;2022-12-18T16:37:49;29.15;;;12.98;;
77146;SDS011;66121;52.584;9.694;2022-12-18T16:40:15;24.42;;;11.45;;
77146;SDS011;66121;52.584;9.694;2022-12-18T16:42:42;20.98;;;12.43;;
77146;SDS011;66121;52.584;9.694;2022-12-18T16:45:09;27.02;;;12.93;;
77146;SDS011;66121;52.584;9.694;2022-12-18T16:47:36;26.77;;;13.57;;
77146;SDS011;66121;52.584;9.694;2022-12-18T16:50:02;26.75;;;12.93;;
77146;SDS011;66121;52.584;9.694;2022-12-18T16:52:28;27.55;;;12.57;;
77146;SDS011;66121;52.584;9.694;2022-12-18T16:54:54;26.48;;;12.80;;
77146;SDS011;66121;52.584;9.694;2022-12-18T16:57:20;25.25;;;12.70;;
77146;SDS011;66121;52.584;9.694;2022-12-18T16:59:46;24.63;;;11.48;;
77146;SDS011;66121;52.584;9.694;2022-12-18T17:04:44;24.05;;;12.60;;
77146;SDS011;66121;52.584;9.694;2022-12-18T17:07:10;26.70;;;12.60;;
77146;SDS011;66121;52.584;9.694;2022-12-18T17:09:36;26.80;;;14.07;;
77146;SDS011;66121;52.584;9.694;2022-12-18T17:12:02;24.05;;;11.35;;
77146;SDS011;66121;52.584;9.694;2022-12-18T17:14:27;28.67;;;13.93;;
77146;SDS011;66121;52.584;9.694;2022-12-18T17:16:53;26.48;;;12.38;;
77146;SDS011;66121;52.584;9.694;2022-12-18T17:19:19;29.90;;;13.48;;
77146;SDS011;66121;52.584;9.694;2022-12-18T17:21:47;29.40;;;13.18;;
77146;SDS011;66121;52.584;9.694;2022-12-18T17:24:14;25.02;;;12.70;;
77146;SDS011;66121;52.584;9.694;2022-12-18T17:26:39;28.65;;;13.45;;
77146;SDS011;66121;52.584;9.694;2022-12-18T17:29:06;25.90;;;12.68;;
77146;SDS011;66121;52.584;9.694;2022-12-18T17:31:32;24.60;;;12.68;;
77146;SDS011;66121;52.584;9.694;2022-12-18T17:33:59;26.13;;;11.93;;
77146;SDS011;66121;52.584;9.694;2022-12-18T17:36:27;24.05;;;11.18;;
77146;SDS011;66121;52.584;9.694;2022-12-18T17:38:55;26.10;;;13.23;;
77146;SDS011;66121;52.584;9.694;2022-12-18T17:41:23;27.58;;;12.93;;
77146;SDS011;66121;52.584;9.694;2022-12-18T17:43:53;28.23;;;13.32;;
77146;SDS011;66121;52.584;9.694;2022-12-18T17:46:20;26.85;;;13.27;;
77146;SDS011;66121;52.584;9.694;2022-12-18T17:48:46;29.52;;;13.52;;
77146;SDS011;66121;52.584;9.694;2022-12-18T17:51:12;23.92;;;12.63;;
77146;SDS011;66121;52.584;9.694;2022-12-18T17:53:39;23.90;;;12.73;;
77146;SDS011;66121;52.584;9.694;2022-12-18T17:56:08;21.98;;;13.57;;
77146;SDS011;66121;52.584;9.694;2022-12-18T17:58:36;26.52;;;12.30;;
77146;SDS011;66121;52.584;9.694;2022-12-18T18:01:02;25.02;;;13.48;;
77146;SDS011;66121;52.584;9.694;2022-12-18T18:03:30;26.40;;;13.60;;
77146;SDS011;66121;52.584;9.694;2022-12-18T18:05:57;82.20;;;30.48;;
77146;SDS011;66121;52.584;9.694;2022-12-18T18:08:24;30.95;;;15.35;;
77146;SDS011;66121;52.584;9.694;2022-12-18T18:10:50;23.13;;;11.43;;
77146;SDS011;66121;52.584;9.694;2022-12-18T18:13:20;22.70;;;11.95;;
77146;SDS011;66121;52.584;9.694;2022-12-18T18:16:05;23.05;;;10.82;;
77146;SDS011;66121;52.584;9.694;2022-12-18T18:18:31;17.75;;;10.52;;
77146;SDS011;66121;52.584;9.694;2022-12-18T18:20:56;22.75;;;12.18;;
77146;SDS011;66121;52.584;9.694;2022-12-18T18:23:22;21.17;;;12.73;;
77146;SDS011;66121;52.584;9.694;2022-12-18T18:25:47;18.07;;;10.33;;
77146;SDS011;66121;52.584;9.694;2022-12-18T18:28:12;26.83;;;11.93;;
77146;SDS011;66121;52.584;9.694;2022-12-18T18:30:38;22.63;;;11.27;;
77146;SDS011;66121;52.584;9.694;2022-12-18T18:33:03;21.38;;;13.43;;
77146;SDS011;66121;52.584;9.694;2022-12-18T18:35:28;21.47;;;11.30;;
77146;SDS011;66121;52.584;9.694;2022-12-18T18:37:54;24.37;;;11.70;;
77146;SDS011;66121;52.584;9.694;2022-12-18T18:40:19;22.20;;;11.13;;
77146;SDS011;66121;52.584;9.694;2022-12-18T18:42:45;23.00;;;12.95;;
77146;SDS011;66121;52.584;9.694;2022-12-18T18:45:11;24.60;;;11.10;;
77146;SDS011;66121;52.584;9.694;2022-12-18T18:47:36;22.55;;;12.25;;
77146;SDS011;66121;52.584;9.694;2022-12-18T18:50:02;24.07;;;11.60;;
77146;SDS011;66121;52.584;9.694;2022-12-18T18:52:27;19.52;;;11.27;;
77146;SDS011;66121;52.584;9.694;2022-12-18T18:54:53;18.63;;;10.18;;
77146;SDS011;66121;52.584;9.694;2022-12-18T18:57:18;19.93;;;11.10;;
77146;SDS011;66121;52.584;9.694;2022-12-18T18:59:44;18.60;;;10.68;;
77146;SDS011;66121;52.584;9.694;2022-12-18T19:02:11;20.05;;;10.57;;
77146;SDS011;66121;52.584;9.694;2022-12-18T19:04:37;20.35;;;11.27;;
77146;SDS011;66121;52.584;9.694;2022-12-18T19:07:02;22.17;;;10.05;;
77146;SDS011;66121;52.584;9.694;2022-12-18T19:09:28;23.20;;;10.97;;
77146;SDS011;66121;52.584;9.694;2022-12-18T19:11:53;20.00;;;10.88;;
77146;SDS011;66121;52.584;9.694;2022-12-18T19:14:37;16.58;;;10.10;;
77146;SDS011;66121;52.584;9.694;2022-12-18T19:17:02;20.23;;;10.23;;
77146;SDS011;66121;52.584;9.694;2022-12-18T19:19:28;17.93;;;9.10;;
77146;SDS011;66121;52.584;9.694;2022-12-18T19:21:53;17.95;;;10.40;;
77146;SDS011;66121;52.584;9.694;2022-12-18T19:24:18;18.93;;;9.77;;
77146;SDS011;66121;52.584;9.694;2022-12-18T19:26:44;17.33;;;9.87;;
77146;SDS011;66121;52.584;9.694;2022-12-18T19:29:09;20.20;;;10.23;;
77146;SDS011;66121;52.584;9.694;2022-12-18T19:31:35;24.98;;;12.13;;
77146;SDS011;66121;52.584;9.694;2022-12-18T19:34:02;24.17;;;10.20;;
77146;SDS011;66121;52.584;9.694;2022-12-18T19:36:29;20.02;;;10.40;;
77146;SDS011;66121;52.584;9.694;2022-12-18T19:38:56;21.05;;;10.77;;
77146;SDS011;66121;52.584;9.694;2022-12-18T19:41:23;23.95;;;10.00;;
77146;SDS011;66121;52.584;9.694;2022-12-18T19:43:49;20.65;;;9.90;;
77146;SDS011;66121;52.584;9.694;2022-12-18T19:46:16;19.92;;;10.65;;
77146;SDS011;66121;52.584;9.694;2022-12-18T19:48:43;20.60;;;9.30;;